Soochow — 9V9715 — position and weather

sailwx.info

Track history (hours):
 
Tides and Currents Weather Stations Pressure Air Temp Water Temp Dewpoint Dewpoint Depression Visibility Wind Speed Wind Dir Waves Ship Positions

Soochow

Last reported at 2018-Jul-23 06:00 UTC. Time now 2018-Jul-23 09:38 UTC.
Position N 30°00' E 126°30'.

Length 200 m; draft 7.9 m.

Type: Cargo ship. MMSI: 564135000.

Wind from 120 at 23 knots

Barometer 1007.0 mb
Air temperature 29.0 ° C
Visibility: greater than 5.4 NM
Dewpoint 26.3 ° C
Water temperature 26.8 ° C

Date/timePositionNaut miles runAvg speedWind from/ knotsBaromVisibWave heightAir tempDewpointWater temp
2018-Jul-23 06:00N 30°00' E 126°30'25610.7 120 / 231007.0 5.4 29.026.326.8
2018-Jul-22 06:00N 33°48' E 128°48'   130 / 81009.9 5.4 33.026.427.9
2018-Jul-19 15:43N 35°02' E 129°08'211.2
2018-Jul-19 15:30N 35°04' E 129°07'3 5.7
2018-Jul-19 15:00N 35°06' E 129°04'0 0.2
2018-Jul-19 14:29N 35°06' E 129°04'0 0.0
2018-Jul-19 13:30N 35°06' E 129°04'0 0.0
2018-Jul-19 12:51N 35°06' E 129°04'0 0.0
2018-Jul-19 12:30N 35°06' E 129°04'0 0.0
2018-Jul-19 12:00N 35°06' E 129°04'0 0.0
2018-Jul-19 11:30N 35°06' E 129°04'0 0.0
2018-Jul-19 11:00N 35°06' E 129°04'0 0.0
2018-Jul-19 10:26N 35°06' E 129°04'0 0.0
2018-Jul-19 10:00N 35°06' E 129°04'0 0.0
2018-Jul-19 09:30N 35°06' E 129°04'0 0.0
2018-Jul-19 09:00N 35°06' E 129°04'0 0.0
2018-Jul-19 08:30N 35°06' E 129°04'0 0.0
2018-Jul-19 07:55N 35°06' E 129°04'0 0.0
2018-Jul-19 07:25N 35°06' E 129°04'0 0.0
2018-Jul-19 06:58N 35°06' E 129°04'0 0.0
2018-Jul-19 06:28N 35°06' E 129°04'0 0.0
2018-Jul-19 05:58N 35°06' E 129°04'0 0.0
2018-Jul-19 05:28N 35°06' E 129°04'0 0.0
2018-Jul-19 04:58N 35°06' E 129°04'0 0.0
2018-Jul-19 04:25N 35°06' E 129°04'0 0.0
2018-Jul-19 03:49N 35°06' E 129°04'0 0.0
2018-Jul-19 03:22N 35°06' E 129°04'0 0.0
2018-Jul-19 02:58N 35°06' E 129°04'0 0.0
2018-Jul-19 02:28N 35°06' E 129°04'0 0.0
2018-Jul-19 01:58N 35°06' E 129°04'0 0.0
2018-Jul-19 01:28N 35°06' E 129°04'0 0.0
2018-Jul-19 00:58N 35°06' E 129°04'0 0.0
2018-Jul-19 00:28N 35°06' E 129°04'0 0.0
2018-Jul-18 23:58N 35°06' E 129°04'0 0.0
2018-Jul-18 23:28N 35°06' E 129°04'0 0.0
2018-Jul-18 22:55N 35°06' E 129°04'0 0.0
2018-Jul-18 22:28N 35°06' E 129°04'0 0.0
2018-Jul-18 21:58N 35°06' E 129°04'0 0.0
2018-Jul-18 21:30N 35°06' E 129°04'3 5.3
2018-Jul-18 21:00N 35°05' E 129°07'4 6.5
2018-Jul-18 20:23N 35°02' E 129°10'511.6
2018-Jul-18 20:00N 34°60' E 129°05'4 8.2
2018-Jul-18 19:30N 35°02' E 129°01'  
2018-Jul-16 00:00N 32°36' E 132°36'10615.6 1014.2 2.2 29.024.926.7
2018-Jul-15 17:15N 33°23' E 134°29'415.8
2018-Jul-15 17:00N 33°26' E 134°32'815.4
2018-Jul-15 16:30N 33°32' E 134°38'815.2
2018-Jul-15 15:59N 33°38' E 134°43'815.2
2018-Jul-15 15:28N 33°44' E 134°50'715.0
2018-Jul-15 14:59N 33°50' E 134°55'815.6
2018-Jul-15 14:30N 33°57' E 134°56'815.2
2018-Jul-15 14:01N 34°05' E 134°57'714.6
2018-Jul-15 13:30N 34°12' E 134°58'510.4
2018-Jul-15 13:01N 34°17' E 134°58'612.3
2018-Jul-15 12:30N 34°23' E 135°02'714.1
2018-Jul-15 12:01N 34°27' E 135°08'815.0
2018-Jul-15 11:30N 34°32' E 135°15'714.4
2018-Jul-15 11:01N 34°37' E 135°21'3 5.4
2018-Jul-15 10:30N 34°38' E 135°25'0 0.0
2018-Jul-15 10:01N 34°38' E 135°25'0 0.0
2018-Jul-15 09:30N 34°38' E 135°25'0 0.0
2018-Jul-15 09:00N 34°38' E 135°25'0 0.0
2018-Jul-15 08:30N 34°38' E 135°25'0 0.0
2018-Jul-15 08:00N 34°38' E 135°25'0 0.0
2018-Jul-15 07:30N 34°38' E 135°25'0 0.0
2018-Jul-15 06:55N 34°38' E 135°25'0 0.0
2018-Jul-15 06:29N 34°38' E 135°25'0 0.0
2018-Jul-15 05:51N 34°38' E 135°25'0 0.0
2018-Jul-15 05:30N 34°38' E 135°25'0 0.0
2018-Jul-15 04:55N 34°38' E 135°25'0 0.0
2018-Jul-15 04:25N 34°38' E 135°25'0 0.0
2018-Jul-15 03:59N 34°38' E 135°25'0 0.0
2018-Jul-15 03:28N 34°38' E 135°25'0 0.1
2018-Jul-15 02:58N 34°38' E 135°25'0 0.0
2018-Jul-15 02:31N 34°38' E 135°25'0 0.0
2018-Jul-15 01:59N 34°38' E 135°25'0 0.1
2018-Jul-15 01:29N 34°38' E 135°25'0 0.0
2018-Jul-15 00:58N 34°38' E 135°25'0 0.0
2018-Jul-15 00:29N 34°38' E 135°25'0 0.0
2018-Jul-14 23:58N 34°38' E 135°25'0 0.0
2018-Jul-14 23:30N 34°38' E 135°25'0 0.0
2018-Jul-14 22:52N 34°38' E 135°25'0 0.0
2018-Jul-14 22:30N 34°38' E 135°25'0 0.0
2018-Jul-14 22:01N 34°38' E 135°25'1 2.1
2018-Jul-14 21:31N 34°38' E 135°23'611.2
2018-Jul-14 21:00N 34°34' E 135°18'815.3
2018-Jul-14 20:30N 34°29' E 135°12'714.7
2018-Jul-14 20:00N 34°24' E 135°05'714.7
2018-Jul-14 19:31N 34°18' E 134°60'712.5
2018-Jul-14 18:55N 34°10' E 134°60'4 9.5
2018-Jul-14 18:30N 34°07' E 134°60'713.5
2018-Jul-14 18:00N 33°60' E 134°59'711.7
2018-Jul-14 17:25N 33°53' E 134°58'12510.9
2018-Jul-14 06:00N 32°12' E 133°30'34815.1 250 / 61011.5 5.4 33.024.928.6
2018-Jul-13 07:00N 30°48' E 126°54'   130 / 81013.010.8 29.0 27.3
Track history (hours):
 
Tides and Currents Weather Stations Pressure Air Temp Water Temp Dewpoint Dewpoint Depression Visibility Wind Speed Wind Dir Waves Ship Positions

Soochow

Last reported at 2018-Jul-23 06:00 UTC. Time now 2018-Jul-23 09:38 UTC.
Position N 30°00' E 126°30'.

Length 200 m; draft 7.9 m.

Type: Cargo ship. MMSI: 564135000.

Wind from 120 at 23 knots

Barometer 1007.0 mb
Air temperature 29.0 ° C
Visibility: greater than 5.4 NM
Dewpoint 26.3 ° C
Water temperature 26.8 ° C

Date/timePositionNaut miles runAvg speedWind from/ knotsBaromVisibWave heightAir tempDewpointWater temp
2018-Jul-23 06:00N 30°00' E 126°30'25610.7 120 / 231007.0 5.4 29.026.326.8
2018-Jul-22 06:00N 33°48' E 128°48'   130 / 81009.9 5.4 33.026.427.9
2018-Jul-19 15:43N 35°02' E 129°08'211.2
2018-Jul-19 15:30N 35°04' E 129°07'3 5.7
2018-Jul-19 15:00N 35°06' E 129°04'0 0.2
2018-Jul-19 14:29N 35°06' E 129°04'0 0.0
2018-Jul-19 13:30N 35°06' E 129°04'0 0.0
2018-Jul-19 12:51N 35°06' E 129°04'0 0.0
2018-Jul-19 12:30N 35°06' E 129°04'0 0.0
2018-Jul-19 12:00N 35°06' E 129°04'0 0.0
2018-Jul-19 11:30N 35°06' E 129°04'0 0.0
2018-Jul-19 11:00N 35°06' E 129°04'0 0.0
2018-Jul-19 10:26N 35°06' E 129°04'0 0.0
2018-Jul-19 10:00N 35°06' E 129°04'0 0.0
2018-Jul-19 09:30N 35°06' E 129°04'0 0.0
2018-Jul-19 09:00N 35°06' E 129°04'0 0.0
2018-Jul-19 08:30N 35°06' E 129°04'0 0.0
2018-Jul-19 07:55N 35°06' E 129°04'0 0.0
2018-Jul-19 07:25N 35°06' E 129°04'0 0.0
2018-Jul-19 06:58N 35°06' E 129°04'0 0.0
2018-Jul-19 06:28N 35°06' E 129°04'0 0.0
2018-Jul-19 05:58N 35°06' E 129°04'0 0.0
2018-Jul-19 05:28N 35°06' E 129°04'0 0.0
2018-Jul-19 04:58N 35°06' E 129°04'0 0.0
2018-Jul-19 04:25N 35°06' E 129°04'0 0.0
2018-Jul-19 03:49N 35°06' E 129°04'0 0.0
2018-Jul-19 03:22N 35°06' E 129°04'0 0.0
2018-Jul-19 02:58N 35°06' E 129°04'0 0.0
2018-Jul-19 02:28N 35°06' E 129°04'0 0.0
2018-Jul-19 01:58N 35°06' E 129°04'0 0.0
2018-Jul-19 01:28N 35°06' E 129°04'0 0.0
2018-Jul-19 00:58N 35°06' E 129°04'0 0.0
2018-Jul-19 00:28N 35°06' E 129°04'0 0.0
2018-Jul-18 23:58N 35°06' E 129°04'0 0.0
2018-Jul-18 23:28N 35°06' E 129°04'0 0.0
2018-Jul-18 22:55N 35°06' E 129°04'0 0.0
2018-Jul-18 22:28N 35°06' E 129°04'0 0.0
2018-Jul-18 21:58N 35°06' E 129°04'0 0.0
2018-Jul-18 21:30N 35°06' E 129°04'3 5.3
2018-Jul-18 21:00N 35°05' E 129°07'4 6.5
2018-Jul-18 20:23N 35°02' E 129°10'511.6
2018-Jul-18 20:00N 34°60' E 129°05'4 8.2
2018-Jul-18 19:30N 35°02' E 129°01'  
2018-Jul-16 00:00N 32°36' E 132°36'10615.6 1014.2 2.2 29.024.926.7
2018-Jul-15 17:15N 33°23' E 134°29'415.8
2018-Jul-15 17:00N 33°26' E 134°32'815.4
2018-Jul-15 16:30N 33°32' E 134°38'815.2
2018-Jul-15 15:59N 33°38' E 134°43'815.2
2018-Jul-15 15:28N 33°44' E 134°50'715.0
2018-Jul-15 14:59N 33°50' E 134°55'815.6
2018-Jul-15 14:30N 33°57' E 134°56'815.2
2018-Jul-15 14:01N 34°05' E 134°57'714.6
2018-Jul-15 13:30N 34°12' E 134°58'510.4
2018-Jul-15 13:01N 34°17' E 134°58'612.3
2018-Jul-15 12:30N 34°23' E 135°02'714.1
2018-Jul-15 12:01N 34°27' E 135°08'815.0
2018-Jul-15 11:30N 34°32' E 135°15'714.4
2018-Jul-15 11:01N 34°37' E 135°21'3 5.4
2018-Jul-15 10:30N 34°38' E 135°25'0 0.0
2018-Jul-15 10:01N 34°38' E 135°25'0 0.0
2018-Jul-15 09:30N 34°38' E 135°25'0 0.0
2018-Jul-15 09:00N 34°38' E 135°25'0 0.0
2018-Jul-15 08:30N 34°38' E 135°25'0 0.0
2018-Jul-15 08:00N 34°38' E 135°25'0 0.0
2018-Jul-15 07:30N 34°38' E 135°25'0 0.0
2018-Jul-15 06:55N 34°38' E 135°25'0 0.0
2018-Jul-15 06:29N 34°38' E 135°25'0 0.0
2018-Jul-15 05:51N 34°38' E 135°25'0 0.0
2018-Jul-15 05:30N 34°38' E 135°25'0 0.0
2018-Jul-15 04:55N 34°38' E 135°25'0 0.0
2018-Jul-15 04:25N 34°38' E 135°25'0 0.0
2018-Jul-15 03:59N 34°38' E 135°25'0 0.0
2018-Jul-15 03:28N 34°38' E 135°25'0 0.1
2018-Jul-15 02:58N 34°38' E 135°25'0 0.0
2018-Jul-15 02:31N 34°38' E 135°25'0 0.0
2018-Jul-15 01:59N 34°38' E 135°25'0 0.1
2018-Jul-15 01:29N 34°38' E 135°25'0 0.0
2018-Jul-15 00:58N 34°38' E 135°25'0 0.0
2018-Jul-15 00:29N 34°38' E 135°25'0 0.0
2018-Jul-14 23:58N 34°38' E 135°25'0 0.0
2018-Jul-14 23:30N 34°38' E 135°25'0 0.0
2018-Jul-14 22:52N 34°38' E 135°25'0 0.0
2018-Jul-14 22:30N 34°38' E 135°25'0 0.0
2018-Jul-14 22:01N 34°38' E 135°25'1 2.1
2018-Jul-14 21:31N 34°38' E 135°23'611.2
2018-Jul-14 21:00N 34°34' E 135°18'815.3
2018-Jul-14 20:30N 34°29' E 135°12'714.7
2018-Jul-14 20:00N 34°24' E 135°05'714.7
2018-Jul-14 19:31N 34°18' E 134°60'712.5
2018-Jul-14 18:55N 34°10' E 134°60'4 9.5
2018-Jul-14 18:30N 34°07' E 134°60'713.5
2018-Jul-14 18:00N 33°60' E 134°59'711.7
2018-Jul-14 17:25N 33°53' E 134°58'12510.9
2018-Jul-14 06:00N 32°12' E 133°30'34815.1 250 / 61011.5 5.4 33.024.928.6
2018-Jul-13 07:00N 30°48' E 126°54'   130 / 81013.010.8 29.0 27.3

Dump ship's entire track history